sensor_id;sensor_type;location;lat;lon;timestamp;P1;durP1;ratioP1;P2;durP2;ratioP2
26588;SDS011;14235;48.532;8.722;2023-05-14T00:01:07;4.78;;;4.47;;
26588;SDS011;14235;48.532;8.722;2023-05-14T00:03:33;4.60;;;4.30;;
26588;SDS011;14235;48.532;8.722;2023-05-14T00:05:59;4.65;;;4.32;;
26588;SDS011;14235;48.532;8.722;2023-05-14T00:08:24;6.68;;;4.35;;
26588;SDS011;14235;48.532;8.722;2023-05-14T00:10:50;4.30;;;3.90;;
26588;SDS011;14235;48.532;8.722;2023-05-14T00:13:16;4.78;;;4.38;;
26588;SDS011;14235;48.532;8.722;2023-05-14T00:15:41;6.15;;;4.78;;
26588;SDS011;14235;48.532;8.722;2023-05-14T00:18:07;6.00;;;4.72;;
26588;SDS011;14235;48.532;8.722;2023-05-14T00:20:36;4.85;;;4.47;;
26588;SDS011;14235;48.532;8.722;2023-05-14T00:23:01;4.90;;;4.45;;
26588;SDS011;14235;48.532;8.722;2023-05-14T00:25:27;6.38;;;4.50;;
26588;SDS011;14235;48.532;8.722;2023-05-14T00:27:52;4.50;;;4.10;;
26588;SDS011;14235;48.532;8.722;2023-05-14T00:30:18;4.80;;;4.32;;
26588;SDS011;14235;48.532;8.722;2023-05-14T00:32:44;4.65;;;4.35;;
26588;SDS011;14235;48.532;8.722;2023-05-14T00:35:09;4.90;;;4.50;;
26588;SDS011;14235;48.532;8.722;2023-05-14T00:37:35;4.45;;;4.15;;
26588;SDS011;14235;48.532;8.722;2023-05-14T00:40:01;4.93;;;4.40;;
26588;SDS011;14235;48.532;8.722;2023-05-14T00:42:27;4.72;;;4.32;;
26588;SDS011;14235;48.532;8.722;2023-05-14T00:44:53;5.25;;;4.65;;
26588;SDS011;14235;48.532;8.722;2023-05-14T00:47:18;4.97;;;4.30;;
26588;SDS011;14235;48.532;8.722;2023-05-14T00:49:44;5.68;;;4.30;;
26588;SDS011;14235;48.532;8.722;2023-05-14T00:52:10;5.15;;;4.75;;
26588;SDS011;14235;48.532;8.722;2023-05-14T00:54:37;4.57;;;4.18;;
26588;SDS011;14235;48.532;8.722;2023-05-14T00:57:03;5.47;;;4.78;;
26588;SDS011;14235;48.532;8.722;2023-05-14T00:59:30;4.78;;;4.38;;
26588;SDS011;14235;48.532;8.722;2023-05-14T01:01:56;4.85;;;4.45;;
26588;SDS011;14235;48.532;8.722;2023-05-14T01:04:22;5.28;;;4.60;;
26588;SDS011;14235;48.532;8.722;2023-05-14T01:09:49;4.80;;;4.50;;
26588;SDS011;14235;48.532;8.722;2023-05-14T01:12:24;4.88;;;4.38;;
26588;SDS011;14235;48.532;8.722;2023-05-14T01:15:11;4.75;;;4.35;;
26588;SDS011;14235;48.532;8.722;2023-05-14T01:17:43;5.18;;;4.68;;
26588;SDS011;14235;48.532;8.722;2023-05-14T01:20:12;4.95;;;4.47;;
26588;SDS011;14235;48.532;8.722;2023-05-14T01:22:38;4.85;;;4.45;;
26588;SDS011;14235;48.532;8.722;2023-05-14T01:25:04;4.47;;;4.07;;
26588;SDS011;14235;48.532;8.722;2023-05-14T01:27:33;5.13;;;4.63;;
26588;SDS011;14235;48.532;8.722;2023-05-14T01:32:57;5.15;;;4.50;;
26588;SDS011;14235;48.532;8.722;2023-05-14T01:35:25;4.97;;;4.57;;
26588;SDS011;14235;48.532;8.722;2023-05-14T01:37:56;5.10;;;4.70;;
26588;SDS011;14235;48.532;8.722;2023-05-14T01:40:24;4.60;;;4.30;;
26588;SDS011;14235;48.532;8.722;2023-05-14T01:42:50;4.82;;;4.43;;
26588;SDS011;14235;48.532;8.722;2023-05-14T01:45:20;5.00;;;4.50;;
26588;SDS011;14235;48.532;8.722;2023-05-14T01:47:46;5.43;;;4.40;;
26588;SDS011;14235;48.532;8.722;2023-05-14T01:50:12;4.82;;;4.43;;
26588;SDS011;14235;48.532;8.722;2023-05-14T01:52:38;4.72;;;4.32;;
26588;SDS011;14235;48.532;8.722;2023-05-14T01:55:03;5.07;;;4.65;;
26588;SDS011;14235;48.532;8.722;2023-05-14T01:57:30;5.07;;;4.65;;
26588;SDS011;14235;48.532;8.722;2023-05-14T01:59:55;5.30;;;4.60;;
26588;SDS011;14235;48.532;8.722;2023-05-14T02:02:21;5.07;;;4.57;;
26588;SDS011;14235;48.532;8.722;2023-05-14T02:04:46;5.13;;;4.63;;
26588;SDS011;14235;48.532;8.722;2023-05-14T02:07:12;5.40;;;4.63;;
26588;SDS011;14235;48.532;8.722;2023-05-14T02:09:38;8.77;;;4.50;;
26588;SDS011;14235;48.532;8.722;2023-05-14T02:12:05;4.50;;;4.10;;
26588;SDS011;14235;48.532;8.722;2023-05-14T02:14:31;4.70;;;4.30;;
26588;SDS011;14235;48.532;8.722;2023-05-14T02:16:57;4.80;;;4.13;;
26588;SDS011;14235;48.532;8.722;2023-05-14T02:19:22;4.35;;;3.95;;
26588;SDS011;14235;48.532;8.722;2023-05-14T02:21:48;4.57;;;3.88;;
26588;SDS011;14235;48.532;8.722;2023-05-14T02:24:14;4.40;;;4.10;;
26588;SDS011;14235;48.532;8.722;2023-05-14T02:26:40;5.07;;;4.55;;
26588;SDS011;14235;48.532;8.722;2023-05-14T02:29:06;4.32;;;4.00;;
26588;SDS011;14235;48.532;8.722;2023-05-14T02:31:31;4.78;;;4.38;;
26588;SDS011;14235;48.532;8.722;2023-05-14T02:33:57;4.90;;;4.40;;
26588;SDS011;14235;48.532;8.722;2023-05-14T02:36:23;4.50;;;4.10;;
26588;SDS011;14235;48.532;8.722;2023-05-14T02:38:48;4.38;;;4.07;;
26588;SDS011;14235;48.532;8.722;2023-05-14T02:41:14;4.50;;;4.20;;
26588;SDS011;14235;48.532;8.722;2023-05-14T02:43:40;4.47;;;4.18;;
26588;SDS011;14235;48.532;8.722;2023-05-14T02:46:05;4.78;;;4.30;;
26588;SDS011;14235;48.532;8.722;2023-05-14T02:48:31;4.70;;;4.30;;
26588;SDS011;14235;48.532;8.722;2023-05-14T02:50:56;4.82;;;4.00;;
26588;SDS011;14235;48.532;8.722;2023-05-14T02:53:22;4.82;;;4.50;;
26588;SDS011;14235;48.532;8.722;2023-05-14T02:55:47;5.07;;;4.28;;
26588;SDS011;14235;48.532;8.722;2023-05-14T02:58:13;4.93;;;4.22;;
26588;SDS011;14235;48.532;8.722;2023-05-14T03:00:39;5.10;;;4.25;;
26588;SDS011;14235;48.532;8.722;2023-05-14T03:03:04;4.70;;;4.40;;
26588;SDS011;14235;48.532;8.722;2023-05-14T03:05:30;4.35;;;3.95;;
26588;SDS011;14235;48.532;8.722;2023-05-14T03:07:55;4.80;;;4.10;;
26588;SDS011;14235;48.532;8.722;2023-05-14T03:10:21;5.20;;;4.70;;
26588;SDS011;14235;48.532;8.722;2023-05-14T03:12:46;4.70;;;4.35;;
26588;SDS011;14235;48.532;8.722;2023-05-14T03:15:13;4.82;;;4.30;;
26588;SDS011;14235;48.532;8.722;2023-05-14T03:17:38;4.78;;;4.35;;
26588;SDS011;14235;48.532;8.722;2023-05-14T03:20:04;4.70;;;4.40;;
26588;SDS011;14235;48.532;8.722;2023-05-14T03:22:30;6.60;;;4.90;;
26588;SDS011;14235;48.532;8.722;2023-05-14T03:24:56;5.28;;;4.53;;
26588;SDS011;14235;48.532;8.722;2023-05-14T03:27:22;5.07;;;4.68;;
26588;SDS011;14235;48.532;8.722;2023-05-14T03:29:47;4.70;;;4.30;;
26588;SDS011;14235;48.532;8.722;2023-05-14T03:32:13;4.32;;;4.03;;
26588;SDS011;14235;48.532;8.722;2023-05-14T03:34:39;5.80;;;4.53;;
26588;SDS011;14235;48.532;8.722;2023-05-14T03:37:04;4.97;;;4.53;;
26588;SDS011;14235;48.532;8.722;2023-05-14T03:39:30;4.43;;;4.13;;
26588;SDS011;14235;48.532;8.722;2023-05-14T03:41:55;5.60;;;4.40;;
26588;SDS011;14235;48.532;8.722;2023-05-14T03:44:22;7.45;;;4.40;;
26588;SDS011;14235;48.532;8.722;2023-05-14T03:46:49;4.93;;;4.43;;
26588;SDS011;14235;48.532;8.722;2023-05-14T03:49:14;4.50;;;4.10;;
26588;SDS011;14235;48.532;8.722;2023-05-14T03:51:40;5.10;;;4.60;;
26588;SDS011;14235;48.532;8.722;2023-05-14T03:54:05;5.22;;;4.80;;
26588;SDS011;14235;48.532;8.722;2023-05-14T03:56:31;5.07;;;4.65;;
26588;SDS011;14235;48.532;8.722;2023-05-14T03:58:57;5.65;;;4.70;;
26588;SDS011;14235;48.532;8.722;2023-05-14T04:01:22;4.75;;;4.30;;
26588;SDS011;14235;48.532;8.722;2023-05-14T04:03:48;4.55;;;4.15;;
26588;SDS011;14235;48.532;8.722;2023-05-14T04:06:13;4.45;;;4.15;;
26588;SDS011;14235;48.532;8.722;2023-05-14T04:08:40;4.70;;;4.30;;
26588;SDS011;14235;48.532;8.722;2023-05-14T04:11:05;5.28;;;4.38;;
26588;SDS011;14235;48.532;8.722;2023-05-14T04:13:31;4.70;;;4.30;;
26588;SDS011;14235;48.532;8.722;2023-05-14T04:15:56;4.53;;;4.20;;
26588;SDS011;14235;48.532;8.722;2023-05-14T04:18:22;4.32;;;4.03;;
26588;SDS011;14235;48.532;8.722;2023-05-14T04:20:47;4.38;;;4.05;;
26588;SDS011;14235;48.532;8.722;2023-05-14T04:23:13;6.07;;;4.50;;
26588;SDS011;14235;48.532;8.722;2023-05-14T04:25:39;4.35;;;4.05;;
26588;SDS011;14235;48.532;8.722;2023-05-14T04:28:04;4.68;;;4.28;;
26588;SDS011;14235;48.532;8.722;2023-05-14T04:30:30;4.72;;;4.32;;
26588;SDS011;14235;48.532;8.722;2023-05-14T04:32:55;4.93;;;4.53;;
26588;SDS011;14235;48.532;8.722;2023-05-14T04:35:21;4.43;;;4.13;;
26588;SDS011;14235;48.532;8.722;2023-05-14T04:37:46;4.63;;;4.30;;
26588;SDS011;14235;48.532;8.722;2023-05-14T04:40:13;4.72;;;4.32;;
26588;SDS011;14235;48.532;8.722;2023-05-14T04:42:40;4.68;;;4.30;;
26588;SDS011;14235;48.532;8.722;2023-05-14T04:45:06;4.30;;;3.97;;
26588;SDS011;14235;48.532;8.722;2023-05-14T04:47:32;5.75;;;4.35;;
26588;SDS011;14235;48.532;8.722;2023-05-14T04:49:58;4.50;;;4.10;;
26588;SDS011;14235;48.532;8.722;2023-05-14T04:52:24;4.15;;;3.85;;
26588;SDS011;14235;48.532;8.722;2023-05-14T04:54:50;5.90;;;4.45;;
26588;SDS011;14235;48.532;8.722;2023-05-14T04:57:15;5.50;;;4.75;;
26588;SDS011;14235;48.532;8.722;2023-05-14T04:59:41;4.50;;;4.10;;
26588;SDS011;14235;48.532;8.722;2023-05-14T05:02:07;6.22;;;4.60;;
26588;SDS011;14235;48.532;8.722;2023-05-14T05:04:32;4.50;;;4.20;;
26588;SDS011;14235;48.532;8.722;2023-05-14T05:06:58;4.40;;;4.10;;
26588;SDS011;14235;48.532;8.722;2023-05-14T05:09:23;5.13;;;4.63;;
26588;SDS011;14235;48.532;8.722;2023-05-14T05:11:49;4.72;;;4.32;;
26588;SDS011;14235;48.532;8.722;2023-05-14T05:14:15;4.45;;;4.15;;
26588;SDS011;14235;48.532;8.722;2023-05-14T05:16:41;5.03;;;4.38;;
26588;SDS011;14235;48.532;8.722;2023-05-14T05:19:06;4.57;;;4.28;;
26588;SDS011;14235;48.532;8.722;2023-05-14T05:21:32;4.60;;;4.22;;
26588;SDS011;14235;48.532;8.722;2023-05-14T05:23:58;6.85;;;4.68;;
26588;SDS011;14235;48.532;8.722;2023-05-14T05:26:24;5.50;;;4.82;;
26588;SDS011;14235;48.532;8.722;2023-05-14T05:28:50;4.38;;;4.07;;
26588;SDS011;14235;48.532;8.722;2023-05-14T05:31:16;4.80;;;4.43;;
26588;SDS011;14235;48.532;8.722;2023-05-14T05:33:42;4.35;;;4.05;;
26588;SDS011;14235;48.532;8.722;2023-05-14T05:36:08;6.80;;;4.13;;
26588;SDS011;14235;48.532;8.722;2023-05-14T05:38:33;4.55;;;4.25;;
26588;SDS011;14235;48.532;8.722;2023-05-14T05:40:59;4.90;;;4.50;;
26588;SDS011;14235;48.532;8.722;2023-05-14T05:43:25;4.88;;;4.57;;
26588;SDS011;14235;48.532;8.722;2023-05-14T05:45:52;5.25;;;4.85;;
26588;SDS011;14235;48.532;8.722;2023-05-14T05:48:18;5.32;;;4.90;;
26588;SDS011;14235;48.532;8.722;2023-05-14T05:50:45;4.82;;;4.43;;
26588;SDS011;14235;48.532;8.722;2023-05-14T05:53:11;5.53;;;4.97;;
26588;SDS011;14235;48.532;8.722;2023-05-14T05:55:37;5.60;;;5.07;;
26588;SDS011;14235;48.532;8.722;2023-05-14T05:58:04;4.88;;;4.28;;
26588;SDS011;14235;48.532;8.722;2023-05-14T06:00:30;4.65;;;4.25;;
26588;SDS011;14235;48.532;8.722;2023-05-14T06:02:56;5.95;;;4.10;;
26588;SDS011;14235;48.532;8.722;2023-05-14T06:05:21;4.85;;;4.45;;
26588;SDS011;14235;48.532;8.722;2023-05-14T06:07:47;4.90;;;4.50;;
26588;SDS011;14235;48.532;8.722;2023-05-14T06:10:13;5.57;;;5.00;;
26588;SDS011;14235;48.532;8.722;2023-05-14T06:12:38;5.10;;;4.70;;
26588;SDS011;14235;48.532;8.722;2023-05-14T06:15:04;5.18;;;4.68;;
26588;SDS011;14235;48.532;8.722;2023-05-14T06:17:30;5.32;;;4.82;;
26588;SDS011;14235;48.532;8.722;2023-05-14T06:19:56;5.57;;;5.13;;
26588;SDS011;14235;48.532;8.722;2023-05-14T06:22:21;5.80;;;4.97;;
26588;SDS011;14235;48.532;8.722;2023-05-14T06:24:47;5.47;;;5.05;;
26588;SDS011;14235;48.532;8.722;2023-05-14T06:27:13;7.55;;;6.57;;
26588;SDS011;14235;48.532;8.722;2023-05-14T06:29:38;7.20;;;6.50;;
26588;SDS011;14235;48.532;8.722;2023-05-14T06:32:04;8.00;;;7.20;;
26588;SDS011;14235;48.532;8.722;2023-05-14T06:34:30;7.28;;;6.68;;
26588;SDS011;14235;48.532;8.722;2023-05-14T06:36:56;7.50;;;6.90;;
26588;SDS011;14235;48.532;8.722;2023-05-14T06:39:21;9.02;;;7.35;;
26588;SDS011;14235;48.532;8.722;2023-05-14T06:41:48;7.70;;;7.00;;
26588;SDS011;14235;48.532;8.722;2023-05-14T06:44:14;7.75;;;6.95;;
26588;SDS011;14235;48.532;8.722;2023-05-14T06:46:41;8.02;;;7.13;;
26588;SDS011;14235;48.532;8.722;2023-05-14T06:49:06;7.30;;;6.70;;
26588;SDS011;14235;48.532;8.722;2023-05-14T06:51:32;8.00;;;7.30;;
26588;SDS011;14235;48.532;8.722;2023-05-14T06:53:57;8.20;;;7.50;;
26588;SDS011;14235;48.532;8.722;2023-05-14T06:56:23;7.53;;;6.93;;
26588;SDS011;14235;48.532;8.722;2023-05-14T06:58:49;8.38;;;7.68;;
26588;SDS011;14235;48.532;8.722;2023-05-14T07:01:15;7.75;;;7.15;;
26588;SDS011;14235;48.532;8.722;2023-05-14T07:03:41;7.97;;;7.20;;
26588;SDS011;14235;48.532;8.722;2023-05-14T07:06:06;7.53;;;6.82;;
26588;SDS011;14235;48.532;8.722;2023-05-14T07:08:32;8.32;;;7.57;;
26588;SDS011;14235;48.532;8.722;2023-05-14T07:10:58;7.68;;;7.07;;
26588;SDS011;14235;48.532;8.722;2023-05-14T07:13:24;7.72;;;6.97;;
26588;SDS011;14235;48.532;8.722;2023-05-14T07:15:52;7.80;;;7.00;;
26588;SDS011;14235;48.532;8.722;2023-05-14T07:18:19;8.02;;;7.25;;
26588;SDS011;14235;48.532;8.722;2023-05-14T07:20:45;8.40;;;7.70;;
26588;SDS011;14235;48.532;8.722;2023-05-14T07:23:11;8.00;;;7.30;;
26588;SDS011;14235;48.532;8.722;2023-05-14T07:25:36;7.82;;;7.03;;
26588;SDS011;14235;48.532;8.722;2023-05-14T07:28:02;8.15;;;7.35;;
26588;SDS011;14235;48.532;8.722;2023-05-14T07:30:28;8.95;;;8.15;;
26588;SDS011;14235;48.532;8.722;2023-05-14T07:32:53;8.55;;;7.75;;
26588;SDS011;14235;48.532;8.722;2023-05-14T07:35:19;9.15;;;6.90;;
26588;SDS011;14235;48.532;8.722;2023-05-14T07:37:44;7.47;;;6.75;;
26588;SDS011;14235;48.532;8.722;2023-05-14T07:40:10;7.75;;;7.05;;
26588;SDS011;14235;48.532;8.722;2023-05-14T07:42:36;8.45;;;7.75;;
26588;SDS011;14235;48.532;8.722;2023-05-14T07:45:01;8.45;;;7.65;;
26588;SDS011;14235;48.532;8.722;2023-05-14T07:47:28;9.20;;;7.72;;
26588;SDS011;14235;48.532;8.722;2023-05-14T07:49:54;7.82;;;7.00;;
26588;SDS011;14235;48.532;8.722;2023-05-14T07:52:20;7.85;;;7.07;;
26588;SDS011;14235;48.532;8.722;2023-05-14T07:54:46;7.30;;;6.70;;
26588;SDS011;14235;48.532;8.722;2023-05-14T07:57:12;7.88;;;7.18;;
26588;SDS011;14235;48.532;8.722;2023-05-14T07:59:38;8.68;;;7.88;;
26588;SDS011;14235;48.532;8.722;2023-05-14T08:02:03;7.80;;;7.10;;
26588;SDS011;14235;48.532;8.722;2023-05-14T08:04:29;8.52;;;7.43;;
26588;SDS011;14235;48.532;8.722;2023-05-14T08:06:54;7.38;;;6.68;;
26588;SDS011;14235;48.532;8.722;2023-05-14T08:09:22;8.05;;;7.35;;
26588;SDS011;14235;48.532;8.722;2023-05-14T08:11:47;8.00;;;7.30;;
26588;SDS011;14235;48.532;8.722;2023-05-14T08:14:13;7.97;;;6.88;;
26588;SDS011;14235;48.532;8.722;2023-05-14T08:16:39;7.43;;;6.68;;
26588;SDS011;14235;48.532;8.722;2023-05-14T08:19:04;7.78;;;6.60;;
26588;SDS011;14235;48.532;8.722;2023-05-14T08:21:30;7.50;;;6.90;;
26588;SDS011;14235;48.532;8.722;2023-05-14T08:23:56;7.43;;;6.78;;
26588;SDS011;14235;48.532;8.722;2023-05-14T08:26:22;9.55;;;7.15;;
26588;SDS011;14235;48.532;8.722;2023-05-14T08:28:47;7.28;;;6.72;;
26588;SDS011;14235;48.532;8.722;2023-05-14T08:31:13;8.27;;;7.40;;
26588;SDS011;14235;48.532;8.722;2023-05-14T08:33:38;7.50;;;6.80;;
26588;SDS011;14235;48.532;8.722;2023-05-14T08:36:04;7.93;;;7.18;;
26588;SDS011;14235;48.532;8.722;2023-05-14T08:38:31;8.27;;;7.45;;
26588;SDS011;14235;48.532;8.722;2023-05-14T08:40:57;8.20;;;7.45;;
26588;SDS011;14235;48.532;8.722;2023-05-14T08:43:29;6.82;;;6.22;;
26588;SDS011;14235;48.532;8.722;2023-05-14T08:46:01;6.90;;;6.40;;
26588;SDS011;14235;48.532;8.722;2023-05-14T08:48:30;7.53;;;6.88;;
26588;SDS011;14235;48.532;8.722;2023-05-14T08:50:58;7.63;;;6.93;;
26588;SDS011;14235;48.532;8.722;2023-05-14T08:53:24;7.18;;;6.57;;
26588;SDS011;14235;48.532;8.722;2023-05-14T08:55:50;7.45;;;6.85;;
26588;SDS011;14235;48.532;8.722;2023-05-14T08:58:18;7.88;;;7.20;;
26588;SDS011;14235;48.532;8.722;2023-05-14T09:00:43;6.60;;;6.10;;
26588;SDS011;14235;48.532;8.722;2023-05-14T09:03:09;7.50;;;6.90;;
26588;SDS011;14235;48.532;8.722;2023-05-14T09:05:36;7.95;;;7.13;;
26588;SDS011;14235;48.532;8.722;2023-05-14T09:08:03;7.28;;;6.63;;
26588;SDS011;14235;48.532;8.722;2023-05-14T09:10:28;7.90;;;7.20;;
26588;SDS011;14235;48.532;8.722;2023-05-14T09:12:54;7.18;;;6.57;;
26588;SDS011;14235;48.532;8.722;2023-05-14T09:15:19;8.27;;;7.22;;
26588;SDS011;14235;48.532;8.722;2023-05-14T09:17:45;7.82;;;6.30;;
26588;SDS011;14235;48.532;8.722;2023-05-14T09:20:12;6.70;;;6.20;;
26588;SDS011;14235;48.532;8.722;2023-05-14T09:22:39;7.70;;;7.00;;
26588;SDS011;14235;48.532;8.722;2023-05-14T09:25:06;6.72;;;6.05;;
26588;SDS011;14235;48.532;8.722;2023-05-14T09:27:35;7.07;;;6.47;;
26588;SDS011;14235;48.532;8.722;2023-05-14T09:30:08;6.70;;;6.18;;
26588;SDS011;14235;48.532;8.722;2023-05-14T09:32:38;10.05;;;8.85;;
26588;SDS011;14235;48.532;8.722;2023-05-14T09:35:11;7.38;;;6.78;;
26588;SDS011;14235;48.532;8.722;2023-05-14T09:37:56;8.90;;;6.97;;
26588;SDS011;14235;48.532;8.722;2023-05-14T09:40:22;8.00;;;6.68;;
26588;SDS011;14235;48.532;8.722;2023-05-14T09:42:48;8.55;;;7.57;;
26588;SDS011;14235;48.532;8.722;2023-05-14T09:45:14;7.90;;;7.20;;
26588;SDS011;14235;48.532;8.722;2023-05-14T09:47:40;7.75;;;7.05;;
26588;SDS011;14235;48.532;8.722;2023-05-14T09:50:07;8.77;;;7.60;;
26588;SDS011;14235;48.532;8.722;2023-05-14T09:52:33;7.45;;;6.85;;
26588;SDS011;14235;48.532;8.722;2023-05-14T09:54:59;7.90;;;7.20;;
26588;SDS011;14235;48.532;8.722;2023-05-14T09:57:25;7.47;;;6.88;;
26588;SDS011;14235;48.532;8.722;2023-05-14T09:59:51;7.40;;;6.75;;
26588;SDS011;14235;48.532;8.722;2023-05-14T10:04:47;8.75;;;7.95;;
26588;SDS011;14235;48.532;8.722;2023-05-14T10:07:18;7.68;;;6.88;;
26588;SDS011;14235;48.532;8.722;2023-05-14T10:09:51;7.60;;;6.90;;
26588;SDS011;14235;48.532;8.722;2023-05-14T10:12:21;6.80;;;6.00;;
26588;SDS011;14235;48.532;8.722;2023-05-14T10:14:47;7.22;;;6.63;;
26588;SDS011;14235;48.532;8.722;2023-05-14T10:17:18;6.63;;;6.03;;
26588;SDS011;14235;48.532;8.722;2023-05-14T10:19:50;6.65;;;6.15;;
26588;SDS011;14235;48.532;8.722;2023-05-14T10:22:22;6.60;;;6.00;;
26588;SDS011;14235;48.532;8.722;2023-05-14T10:24:55;5.90;;;5.40;;
26588;SDS011;14235;48.532;8.722;2023-05-14T10:27:20;6.30;;;5.80;;
26588;SDS011;14235;48.532;8.722;2023-05-14T10:29:51;5.68;;;5.28;;
26588;SDS011;14235;48.532;8.722;2023-05-14T10:32:21;6.50;;;5.97;;
26588;SDS011;14235;48.532;8.722;2023-05-14T10:34:49;6.18;;;5.60;;
26588;SDS011;14235;48.532;8.722;2023-05-14T10:37:21;5.20;;;4.80;;
26588;SDS011;14235;48.532;8.722;2023-05-14T10:39:53;5.53;;;5.03;;
26588;SDS011;14235;48.532;8.722;2023-05-14T10:42:24;5.80;;;5.13;;
26588;SDS011;14235;48.532;8.722;2023-05-14T10:44:53;5.47;;;4.97;;
26588;SDS011;14235;48.532;8.722;2023-05-14T10:47:25;5.43;;;4.93;;
26588;SDS011;14235;48.532;8.722;2023-05-14T10:49:57;5.38;;;4.97;;
26588;SDS011;14235;48.532;8.722;2023-05-14T10:52:24;5.55;;;5.05;;
26588;SDS011;14235;48.532;8.722;2023-05-14T10:54:54;5.38;;;4.88;;
26588;SDS011;14235;48.532;8.722;2023-05-14T10:57:22;5.43;;;5.03;;
26588;SDS011;14235;48.532;8.722;2023-05-14T10:59:56;5.75;;;5.25;;
26588;SDS011;14235;48.532;8.722;2023-05-14T11:02:26;5.43;;;5.03;;
26588;SDS011;14235;48.532;8.722;2023-05-14T11:05:01;6.90;;;6.28;;
26588;SDS011;14235;48.532;8.722;2023-05-14T11:07:36;7.30;;;6.40;;
26588;SDS011;14235;48.532;8.722;2023-05-14T11:10:06;7.55;;;6.68;;
26588;SDS011;14235;48.532;8.722;2023-05-14T11:12:37;5.85;;;5.40;;
26588;SDS011;14235;48.532;8.722;2023-05-14T11:15:11;5.85;;;5.43;;
26588;SDS011;14235;48.532;8.722;2023-05-14T11:17:44;6.00;;;5.50;;
26588;SDS011;14235;48.532;8.722;2023-05-14T11:20:11;3.80;;;3.60;;
26588;SDS011;14235;48.532;8.722;2023-05-14T11:22:38;4.35;;;3.80;;
26588;SDS011;14235;48.532;8.722;2023-05-14T11:25:05;4.03;;;3.72;;
26588;SDS011;14235;48.532;8.722;2023-05-14T11:27:33;4.63;;;4.22;;
26588;SDS011;14235;48.532;8.722;2023-05-14T11:30:02;3.80;;;3.45;;
26588;SDS011;14235;48.532;8.722;2023-05-14T11:32:28;5.25;;;3.78;;
26588;SDS011;14235;48.532;8.722;2023-05-14T11:34:56;3.78;;;3.55;;
26588;SDS011;14235;48.532;8.722;2023-05-14T11:37:21;6.03;;;4.28;;
26588;SDS011;14235;48.532;8.722;2023-05-14T11:39:47;3.80;;;3.50;;
26588;SDS011;14235;48.532;8.722;2023-05-14T11:42:18;4.05;;;3.60;;
26588;SDS011;14235;48.532;8.722;2023-05-14T11:44:48;3.90;;;3.60;;
26588;SDS011;14235;48.532;8.722;2023-05-14T11:47:15;4.07;;;3.65;;
26588;SDS011;14235;48.532;8.722;2023-05-14T11:49:42;3.65;;;3.42;;
26588;SDS011;14235;48.532;8.722;2023-05-14T11:52:08;5.80;;;4.13;;
26588;SDS011;14235;48.532;8.722;2023-05-14T11:54:36;4.40;;;3.92;;
26588;SDS011;14235;48.532;8.722;2023-05-14T11:57:06;4.38;;;3.72;;
26588;SDS011;14235;48.532;8.722;2023-05-14T11:59:33;4.03;;;3.72;;
26588;SDS011;14235;48.532;8.722;2023-05-14T12:02:00;4.10;;;3.63;;
26588;SDS011;14235;48.532;8.722;2023-05-14T12:04:27;3.97;;;3.67;;
26588;SDS011;14235;48.532;8.722;2023-05-14T12:06:53;4.00;;;3.70;;
26588;SDS011;14235;48.532;8.722;2023-05-14T12:09:21;5.18;;;3.50;;
26588;SDS011;14235;48.532;8.722;2023-05-14T12:11:48;3.50;;;3.20;;
26588;SDS011;14235;48.532;8.722;2023-05-14T12:14:22;3.22;;;3.03;;
26588;SDS011;14235;48.532;8.722;2023-05-14T12:16:48;3.53;;;3.28;;
26588;SDS011;14235;48.532;8.722;2023-05-14T12:19:16;4.93;;;3.30;;
26588;SDS011;14235;48.532;8.722;2023-05-14T12:21:43;3.40;;;3.15;;
26588;SDS011;14235;48.532;8.722;2023-05-14T12:24:11;3.72;;;3.50;;
26588;SDS011;14235;48.532;8.722;2023-05-14T12:26:39;3.33;;;3.13;;
26588;SDS011;14235;48.532;8.722;2023-05-14T12:29:11;4.28;;;3.40;;
26588;SDS011;14235;48.532;8.722;2023-05-14T12:31:37;3.83;;;3.35;;
26588;SDS011;14235;48.532;8.722;2023-05-14T12:34:13;3.55;;;3.35;;
26588;SDS011;14235;48.532;8.722;2023-05-14T12:36:39;3.30;;;3.10;;
26588;SDS011;14235;48.532;8.722;2023-05-14T12:39:04;3.55;;;3.35;;
26588;SDS011;14235;48.532;8.722;2023-05-14T12:41:30;4.28;;;3.88;;
26588;SDS011;14235;48.532;8.722;2023-05-14T12:43:56;4.43;;;4.13;;
26588;SDS011;14235;48.532;8.722;2023-05-14T12:46:22;5.13;;;4.35;;
26588;SDS011;14235;48.532;8.722;2023-05-14T12:48:49;4.63;;;4.15;;
26588;SDS011;14235;48.532;8.722;2023-05-14T12:51:15;4.68;;;4.28;;
26588;SDS011;14235;48.532;8.722;2023-05-14T12:53:40;4.82;;;4.43;;
26588;SDS011;14235;48.532;8.722;2023-05-14T12:56:06;5.00;;;4.60;;
26588;SDS011;14235;48.532;8.722;2023-05-14T12:58:32;5.60;;;4.38;;
26588;SDS011;14235;48.532;8.722;2023-05-14T13:00:57;4.68;;;4.38;;
26588;SDS011;14235;48.532;8.722;2023-05-14T13:03:23;4.28;;;3.97;;
26588;SDS011;14235;48.532;8.722;2023-05-14T13:05:50;5.25;;;4.75;;
26588;SDS011;14235;48.532;8.722;2023-05-14T13:08:16;5.57;;;5.15;;
26588;SDS011;14235;48.532;8.722;2023-05-14T13:10:42;5.22;;;4.82;;
26588;SDS011;14235;48.532;8.722;2023-05-14T13:13:09;5.30;;;4.80;;
26588;SDS011;14235;48.532;8.722;2023-05-14T13:15:35;5.22;;;4.82;;
26588;SDS011;14235;48.532;8.722;2023-05-14T13:18:01;5.43;;;4.93;;
26588;SDS011;14235;48.532;8.722;2023-05-14T13:20:27;5.57;;;5.18;;
26588;SDS011;14235;48.532;8.722;2023-05-14T13:22:54;5.72;;;5.22;;
26588;SDS011;14235;48.532;8.722;2023-05-14T13:25:23;5.50;;;5.00;;
26588;SDS011;14235;48.532;8.722;2023-05-14T13:27:49;5.50;;;5.00;;
26588;SDS011;14235;48.532;8.722;2023-05-14T13:30:18;5.78;;;5.00;;
26588;SDS011;14235;48.532;8.722;2023-05-14T13:32:44;4.60;;;4.30;;
26588;SDS011;14235;48.532;8.722;2023-05-14T13:35:10;5.50;;;5.00;;
26588;SDS011;14235;48.532;8.722;2023-05-14T13:37:36;4.30;;;4.00;;
26588;SDS011;14235;48.532;8.722;2023-05-14T13:40:02;5.30;;;4.85;;
26588;SDS011;14235;48.532;8.722;2023-05-14T13:42:28;6.00;;;5.50;;
26588;SDS011;14235;48.532;8.722;2023-05-14T13:44:54;6.35;;;5.85;;
26588;SDS011;14235;48.532;8.722;2023-05-14T13:47:21;6.25;;;5.75;;
26588;SDS011;14235;48.532;8.722;2023-05-14T13:49:47;6.75;;;6.22;;
26588;SDS011;14235;48.532;8.722;2023-05-14T13:52:12;6.93;;;6.22;;
26588;SDS011;14235;48.532;8.722;2023-05-14T13:54:38;7.80;;;7.00;;
26588;SDS011;14235;48.532;8.722;2023-05-14T13:57:04;7.68;;;6.85;;
26588;SDS011;14235;48.532;8.722;2023-05-14T13:59:29;7.13;;;6.05;;
26588;SDS011;14235;48.532;8.722;2023-05-14T14:01:55;7.03;;;6.10;;
26588;SDS011;14235;48.532;8.722;2023-05-14T14:04:21;6.78;;;6.18;;
26588;SDS011;14235;48.532;8.722;2023-05-14T14:06:46;6.68;;;5.15;;
26588;SDS011;14235;48.532;8.722;2023-05-14T14:09:13;5.85;;;5.35;;
26588;SDS011;14235;48.532;8.722;2023-05-14T14:11:39;5.50;;;5.00;;
26588;SDS011;14235;48.532;8.722;2023-05-14T14:14:05;6.25;;;5.53;;
26588;SDS011;14235;48.532;8.722;2023-05-14T14:16:30;6.70;;;6.00;;
26588;SDS011;14235;48.532;8.722;2023-05-14T14:18:56;6.20;;;5.70;;
26588;SDS011;14235;48.532;8.722;2023-05-14T14:21:21;7.93;;;5.80;;
26588;SDS011;14235;48.532;8.722;2023-05-14T14:23:47;6.32;;;5.82;;
26588;SDS011;14235;48.532;8.722;2023-05-14T14:26:13;7.85;;;5.70;;
26588;SDS011;14235;48.532;8.722;2023-05-14T14:28:38;6.05;;;5.50;;
26588;SDS011;14235;48.532;8.722;2023-05-14T14:31:04;5.82;;;5.32;;
26588;SDS011;14235;48.532;8.722;2023-05-14T14:33:30;4.57;;;4.18;;
26588;SDS011;14235;48.532;8.722;2023-05-14T14:35:56;5.00;;;4.60;;
26588;SDS011;14235;48.532;8.722;2023-05-14T14:38:21;5.80;;;5.30;;
26588;SDS011;14235;48.532;8.722;2023-05-14T14:40:48;5.60;;;5.10;;
26588;SDS011;14235;48.532;8.722;2023-05-14T14:43:14;5.20;;;4.80;;
26588;SDS011;14235;48.532;8.722;2023-05-14T14:45:40;9.38;;;6.97;;
26588;SDS011;14235;48.532;8.722;2023-05-14T14:51:03;7.57;;;6.78;;
26588;SDS011;14235;48.532;8.722;2023-05-14T14:53:30;7.82;;;7.03;;
26588;SDS011;14235;48.532;8.722;2023-05-14T14:55:56;4.82;;;4.43;;